Time;durP1;ratioP1;P1;durP2;ratioP2;P2;SDS_P1;SDS_P2;PMS_P1;PMS_P2;Temp;Humidity;BMP_temperature;BMP_pressure;BME280_temperature;BME280_humidity;BME280_pressure;Samples;Min_cycle;Max_cycle;Signal;HPM_P1;HPM_P2
2023/07/21 00:02:47;;;;;;;;;;;;;;;30.45;34.75;93850.81;5053326;28;9412;-60
2023/07/21 00:05:27;;;;;;;;;;;;;;;30.43;34.18;93837.50;4997303;28;7444;-60
2023/07/21 00:07:54;;;;;;;;;;;;;;;30.42;34.23;93838.81;5001134;28;7233;-60
2023/07/21 00:10:30;;;;;;;;;;;;;;;30.42;34.31;93835.28;4992500;28;9497;-60
2023/07/21 00:13:00;;;;;;;;;;;;;;;30.37;34.51;93842.50;5009197;28;7183;-61
2023/07/21 00:15:39;;;;;;;;;;;;;;;30.37;34.07;93844.53;4990642;28;6969;-61
2023/07/21 00:18:05;;;;;;;;;;;;;;;30.36;33.63;93840.28;4994575;28;8844;-60
2023/07/21 00:21:05;;;;;;;;;;;;;;;30.33;33.54;93833.81;5014435;28;8983;-61
2023/07/21 00:24:26;;;;;;;;;;;;;;;30.32;33.83;93835.09;4948322;28;7285;-61
2023/07/21 00:26:53;;;;;;;;;;;;;;;30.30;33.40;93829.34;4875525;29;10058;-61
2023/07/21 00:29:22;;;;;;;;;;;;;;;30.31;33.80;93830.09;4876615;29;8749;-61
2023/07/21 00:31:51;;;;;;;;;;;;;;;30.26;33.42;93828.22;4859178;29;7245;-61
2023/07/21 00:34:24;;;;;;;;;;;;;;;30.26;34.57;93828.97;4870257;29;7237;-61
2023/07/21 00:37:01;;;;;;;;;;;;;;;30.26;34.49;93828.97;4845529;29;9387;-60
2023/07/21 00:39:47;;;;;;;;;;;;;;;30.22;34.60;93828.59;4859430;29;7252;-61
2023/07/21 00:42:26;;;;;;;;;;;;;;;30.22;33.42;93827.84;4869143;29;7286;-61
2023/07/21 00:45:05;;;;;;;;;;;;;;;30.22;34.50;93822.31;4872030;29;9432;-60
2023/07/21 00:48:07;;;;;;;;;;;;;;;30.20;33.94;93831.19;4892373;29;7280;-61
2023/07/21 00:50:54;;;;;;;;;;;;;;;30.19;33.52;93821.38;4870189;29;7587;-61
2023/07/21 00:53:20;;;;;;;;;;;;;;;30.15;34.27;93826.56;4876717;29;7352;-60
2023/07/21 00:55:47;;;;;;;;;;;;;;;30.16;33.54;93824.53;4858494;29;7245;-60
2023/07/21 00:58:26;;;;;;;;;;;;;;;30.15;33.58;93834.13;4866756;29;7623;-61
2023/07/21 01:01:23;;;;;;;;;;;;;;;30.14;33.17;93825.09;4946041;28;7339;-62
2023/07/21 01:04:05;;;;;;;;;;;;;;;30.11;33.33;93815.09;4982378;28;7499;-61
2023/07/21 01:06:45;;;;;;;;;;;;;;;30.12;33.26;93813.81;4971094;28;7186;-61
2023/07/21 01:09:14;;;;;;;;;;;;;;;30.12;33.92;93807.53;4978671;28;7315;-61
2023/07/21 01:11:41;;;;;;;;;;;;;;;30.11;33.97;93808.81;4974923;28;7018;-61
2023/07/21 01:14:09;;;;;;;;;;;;;;;30.09;33.77;93814.16;4992054;28;7071;-61
2023/07/21 01:16:48;;;;;;;;;;;;;;;30.06;33.85;93806.97;4990636;28;9078;-61
2023/07/21 01:19:37;;;;;;;;;;;;;;;30.07;33.32;93803.63;4990852;28;8268;-61
2023/07/21 01:22:08;;;;;;;;;;;;;;;30.00;32.93;93796.06;4990677;28;7258;-61
2023/07/21 01:24:46;;;;;;;;;;;;;;;29.99;33.57;93800.13;5019709;28;8729;-61
2023/07/21 01:27:36;;;;;;;;;;;;;;;29.96;32.92;93795.69;5033190;28;7157;-60
2023/07/21 01:30:06;;;;;;;;;;;;;;;29.92;33.61;93789.78;5050606;28;7285;-60
2023/07/21 01:32:37;;;;;;;;;;;;;;;29.88;33.96;93791.44;5018614;28;6995;-60
2023/07/21 01:35:17;;;;;;;;;;;;;;;29.91;33.49;93793.81;5048458;28;7258;-61
2023/07/21 01:37:45;;;;;;;;;;;;;;;29.91;33.94;93799.38;5049030;28;9370;-60
2023/07/21 01:40:25;;;;;;;;;;;;;;;29.93;33.82;93788.47;5034638;28;7296;-60
2023/07/21 01:42:52;;;;;;;;;;;;;;;29.89;32.99;93792.91;5063797;28;7791;-60
2023/07/21 01:45:24;;;;;;;;;;;;;;;29.90;33.71;93797.91;5033299;28;7200;-60
2023/07/21 01:47:51;;;;;;;;;;;;;;;29.89;33.42;93795.66;5030620;28;7136;-61
2023/07/21 01:50:20;;;;;;;;;;;;;;;29.87;33.56;93799.00;5033687;28;7274;-60
2023/07/21 01:53:13;;;;;;;;;;;;;;;29.87;33.28;93790.69;5032884;28;7062;-60
2023/07/21 01:56:25;;;;;;;;;;;;;;;29.86;33.29;93782.94;5043798;28;7029;-61
2023/07/21 01:58:53;;;;;;;;;;;;;;;29.83;33.16;93776.44;4967797;28;7451;-61
2023/07/21 02:01:40;;;;;;;;;;;;;;;29.83;33.31;93784.78;4976865;28;6989;-60
2023/07/21 02:04:06;;;;;;;;;;;;;;;29.83;33.24;93790.31;4987492;28;7279;-60
2023/07/21 02:06:39;;;;;;;;;;;;;;;29.82;33.37;93788.81;4975727;28;7432;-60
2023/07/21 02:09:35;;;;;;;;;;;;;;;29.80;32.63;93777.56;5000697;28;9085;-61
2023/07/21 02:12:12;;;;;;;;;;;;;;;29.79;33.57;93781.63;4936439;29;8790;-60
2023/07/21 02:14:40;;;;;;;;;;;;;;;29.76;33.27;93785.50;4920109;29;9076;-60
2023/07/21 02:17:16;;;;;;;;;;;;;;;29.79;32.53;93787.19;4919882;29;7623;-60
2023/07/21 02:20:17;;;;;;;;;;;;;;;29.76;32.81;93772.38;4933551;29;7271;-61
2023/07/21 02:23:08;;;;;;;;;;;;;;;29.74;33.29;93782.53;4912389;29;6994;-61
2023/07/21 02:25:44;;;;;;;;;;;;;;;29.72;32.23;93769.22;4917135;29;7354;-61
2023/07/21 02:28:19;;;;;;;;;;;;;;;29.72;32.15;93774.75;4917238;29;9099;-60
2023/07/21 02:31:04;;;;;;;;;;;;;;;29.70;32.87;93777.34;4946535;28;8954;-60
2023/07/21 02:34:09;;;;;;;;;;;;;;;29.71;32.39;93780.88;4919595;28;9042;-61
2023/07/21 02:36:55;;;;;;;;;;;;;;;29.66;32.69;93774.19;4917173;29;7664;-61
2023/07/21 02:39:51;;;;;;;;;;;;;;;29.67;31.93;93786.00;4894217;29;8559;-61
2023/07/21 02:42:18;;;;;;;;;;;;;;;29.65;32.52;93778.25;4863287;29;8413;-61
2023/07/21 02:44:45;;;;;;;;;;;;;;;29.64;32.80;93767.72;4857860;29;7247;-61
2023/07/21 02:47:16;;;;;;;;;;;;;;;29.67;32.32;93777.69;4869376;29;6933;-61
2023/07/21 02:49:47;;;;;;;;;;;;;;;29.63;32.27;93774.56;4876635;29;7014;-61
2023/07/21 02:52:27;;;;;;;;;;;;;;;29.63;32.34;93772.53;4863293;29;7217;-61
2023/07/21 02:54:54;;;;;;;;;;;;;;;29.64;32.62;93765.69;4878278;29;7230;-61
2023/07/21 02:57:32;;;;;;;;;;;;;;;29.64;32.75;93762.19;4873637;29;7308;-61
2023/07/21 03:00:12;;;;;;;;;;;;;;;29.64;32.68;93756.63;4935847;28;7126;-61
2023/07/21 03:02:41;;;;;;;;;;;;;;;29.62;32.57;93757.19;4936169;29;6995;-61
2023/07/21 03:05:10;;;;;;;;;;;;;;;29.60;32.45;93764.59;4935533;28;8864;-61
2023/07/21 03:07:39;;;;;;;;;;;;;;;29.60;33.24;93759.03;4922977;29;7053;-61
2023/07/21 03:10:11;;;;;;;;;;;;;;;29.61;32.02;93761.25;4929107;28;7034;-61
2023/07/21 03:12:39;;;;;;;;;;;;;;;29.59;32.78;93760.31;4972669;28;7231;-61
2023/07/21 03:15:08;;;;;;;;;;;;;;;29.57;33.65;93755.34;4972537;28;6994;-61
2023/07/21 03:17:36;;;;;;;;;;;;;;;29.55;32.22;93757.94;4976322;28;8776;-61
2023/07/21 03:20:10;;;;;;;;;;;;;;;29.58;33.01;93761.63;5030333;28;7069;-61
2023/07/21 03:22:44;;;;;;;;;;;;;;;29.58;33.47;93762.34;5048654;28;7065;-61
2023/07/21 03:25:13;;;;;;;;;;;;;;;29.59;32.24;93758.31;5037364;28;9105;-61
2023/07/21 03:27:40;;;;;;;;;;;;;;;29.62;32.35;93759.22;5047176;28;7117;-61
2023/07/21 03:30:10;;;;;;;;;;;;;;;29.61;32.69;93749.41;5031781;28;7222;-61
2023/07/21 03:32:45;;;;;;;;;;;;;;;29.62;32.76;93756.47;5047270;28;7272;-61
2023/07/21 03:35:15;;;;;;;;;;;;;;;29.64;33.05;93759.41;5035646;28;8840;-61
2023/07/21 03:37:47;;;;;;;;;;;;;;;29.66;33.46;93771.44;5053655;28;6993;-61
2023/07/21 03:40:13;;;;;;;;;;;;;;;29.62;32.37;93767.53;5037609;28;7087;-61
2023/07/21 03:42:45;;;;;;;;;;;;;;;29.61;32.90;93766.78;5035552;28;8212;-61
2023/07/21 03:45:17;;;;;;;;;;;;;;;29.62;32.98;93762.00;5052690;28;7001;-56
2023/07/21 03:47:45;;;;;;;;;;;;;;;29.60;32.88;93756.28;5057095;28;8869;-56
2023/07/21 03:50:13;;;;;;;;;;;;;;;29.62;32.22;93753.69;5052919;28;7475;-56
2023/07/21 03:53:18;;;;;;;;;;;;;;;29.64;33.31;93756.63;5051316;28;7580;-56
2023/07/21 03:55:57;;;;;;;;;;;;;;;29.63;32.80;93757.91;5048778;28;7223;-56
2023/07/21 03:58:29;;;;;;;;;;;;;;;29.65;33.49;93756.09;5034437;28;6989;-56
2023/07/21 04:01:24;;;;;;;;;;;;;;;29.66;32.93;93762.38;5027926;28;7218;-56
2023/07/21 04:04:41;;;;;;;;;;;;;;;29.66;33.18;93746.50;5042185;28;7114;-56
2023/07/21 04:07:37;;;;;;;;;;;;;;;29.65;33.37;93749.78;4965248;28;7223;-56
2023/07/21 04:10:05;;;;;;;;;;;;;;;29.64;32.64;93734.47;4914885;28;7279;-56
2023/07/21 04:12:47;;;;;;;;;;;;;;;29.60;32.79;93734.09;4935085;29;9096;-56
2023/07/21 04:15:29;;;;;;;;;;;;;;;29.63;33.53;93738.53;4932172;29;7004;-56
2023/07/21 04:18:06;;;;;;;;;;;;;;;29.61;32.46;93747.41;4914965;29;9495;-57
2023/07/21 04:20:33;;;;;;;;;;;;;;;29.60;32.60;93747.97;4918655;29;7782;-56
2023/07/21 04:23:14;;;;;;;;;;;;;;;29.59;32.97;93730.59;4934372;28;9308;-56
2023/07/21 04:26:16;;;;;;;;;;;;;;;29.59;32.62;93732.59;4932174;29;9128;-56
2023/07/21 04:28:45;;;;;;;;;;;;;;;29.57;32.97;93735.19;4923737;29;7302;-56
2023/07/21 04:31:15;;;;;;;;;;;;;;;29.57;33.51;93737.97;4933798;28;6997;-56
2023/07/21 04:33:58;;;;;;;;;;;;;;;29.57;32.97;93735.19;4918106;29;9030;-56
2023/07/21 04:36:38;;;;;;;;;;;;;;;29.55;32.53;93730.22;4931384;29;8189;-56
2023/07/21 04:39:19;;;;;;;;;;;;;;;29.55;32.68;93733.00;4916494;29;8751;-56
2023/07/21 04:42:14;;;;;;;;;;;;;;;29.53;32.85;93743.88;4921245;28;7738;-56
2023/07/21 04:44:50;;;;;;;;;;;;;;;29.52;33.99;93750.72;4931853;28;9203;-56
2023/07/21 04:47:28;;;;;;;;;;;;;;;29.52;33.46;93753.47;4943826;28;7344;-56
2023/07/21 04:50:05;;;;;;;;;;;;;;;29.53;33.43;93760.50;4975943;28;7154;-56
2023/07/21 04:52:31;;;;;;;;;;;;;;;29.53;33.61;93737.59;4969995;28;7670;-57
2023/07/21 04:55:08;;;;;;;;;;;;;;;29.54;33.71;93731.50;4983591;28;9233;-56
2023/07/21 04:58:05;;;;;;;;;;;;;;;29.51;33.67;93729.09;4970420;28;9105;-57
2023/07/21 05:00:54;;;;;;;;;;;;;;;29.46;33.45;93752.91;4893592;29;7244;-56
2023/07/21 05:03:21;;;;;;;;;;;;;;;29.49;33.89;93773.97;4913630;29;9335;-57
2023/07/21 05:05:57;;;;;;;;;;;;;;;29.49;33.35;93781.56;4913356;29;7210;-57
2023/07/21 05:08:35;;;;;;;;;;;;;;;29.54;33.76;93786.16;4914061;29;9065;-56
2023/07/21 05:11:03;;;;;;;;;;;;;;;29.51;33.83;93767.91;4910712;29;7214;-56
2023/07/21 05:13:37;;;;;;;;;;;;;;;29.55;33.91;93757.19;4897373;29;7256;-57
2023/07/21 05:16:14;;;;;;;;;;;;;;;29.52;34.25;93770.09;4897692;29;9019;-57
2023/07/21 05:18:53;;;;;;;;;;;;;;;29.51;34.23;93759.59;4912556;29;7098;-57
2023/07/21 05:21:19;;;;;;;;;;;;;;;29.52;33.39;93772.88;4935488;28;9458;-56
2023/07/21 05:23:49;;;;;;;;;;;;;;;29.49;34.17;93776.03;4944148;28;7517;-57
2023/07/21 05:26:36;;;;;;;;;;;;;;;29.52;34.57;93794.31;4934136;28;7373;-56
2023/07/21 05:29:46;;;;;;;;;;;;;;;29.50;34.68;93792.09;4932861;28;9082;-56
2023/07/21 05:32:23;;;;;;;;;;;;;;;29.49;34.69;93800.97;4950399;28;7243;-56
2023/07/21 05:34:50;;;;;;;;;;;;;;;29.50;34.15;93821.81;4933046;29;7059;-56
2023/07/21 05:37:17;;;;;;;;;;;;;;;29.52;34.05;93833.09;4999880;28;7177;-56
2023/07/21 05:39:51;;;;;;;;;;;;;;;29.52;34.19;93825.53;5032034;28;7255;-56
2023/07/21 05:42:17;;;;;;;;;;;;;;;29.53;34.72;93821.47;5045259;28;7057;-56
2023/07/21 05:44:51;;;;;;;;;;;;;;;29.57;35.42;93827.41;5065945;28;7390;-56
2023/07/21 05:47:35;;;;;;;;;;;;;;;29.57;35.17;93862.69;5048679;28;7427;-56
2023/07/21 05:50:21;;;;;;;;;;;;;;;29.54;34.84;93867.28;5033789;28;7267;-56
2023/07/21 05:52:58;;;;;;;;;;;;;;;29.55;35.43;93893.72;5030484;28;7075;-56
2023/07/21 05:56:11;;;;;;;;;;;;;;;29.54;35.68;93917.16;5045662;28;9092;-56
2023/07/21 05:58:50;;;;;;;;;;;;;;;29.52;35.12;93910.69;4978459;28;7249;-56
2023/07/21 06:01:42;;;;;;;;;;;;;;;29.55;34.42;93912.38;4968401;28;7277;-57
2023/07/21 06:04:46;;;;;;;;;;;;;;;29.53;35.21;93884.47;4989294;28;6992;-62
2023/07/21 06:07:32;;;;;;;;;;;;;;;29.51;35.84;93856.56;4954107;28;7357;-62
2023/07/21 06:10:16;;;;;;;;;;;;;;;29.53;35.39;93851.22;4968158;28;7238;-62
2023/07/21 06:13:04;;;;;;;;;;;;;;;29.54;35.53;93849.91;4966069;28;7335;-62
2023/07/21 06:15:31;;;;;;;;;;;;;;;29.51;35.49;93843.47;4963399;28;6999;-61
2023/07/21 06:18:06;;;;;;;;;;;;;;;29.51;35.54;93831.63;4965014;28;7349;-62
2023/07/21 06:20:41;;;;;;;;;;;;;;;29.52;35.86;93799.84;4965300;28;7105;-62
2023/07/21 06:23:19;;;;;;;;;;;;;;;29.51;36.19;93790.06;4951752;28;6999;-63
2023/07/21 06:26:02;;;;;;;;;;;;;;;29.50;36.83;93771.94;4967026;28;7232;-63
2023/07/21 06:29:00;;;;;;;;;;;;;;;29.52;36.54;93774.91;4963558;28;9093;-63
2023/07/21 06:31:40;;;;;;;;;;;;;;;29.51;35.96;93790.06;4874937;29;8748;-62
2023/07/21 06:34:06;;;;;;;;;;;;;;;29.47;35.87;93795.22;4868286;29;9084;-62
2023/07/21 06:37:03;;;;;;;;;;;;;;;29.49;36.50;93815.53;4881793;29;7072;-62
2023/07/21 06:39:29;;;;;;;;;;;;;;;29.48;36.26;93821.63;4876428;29;7087;-62
2023/07/21 06:41:57;;;;;;;;;;;;;;;29.46;37.35;93827.00;4893052;29;9355;-62
2023/07/21 06:44:23;;;;;;;;;;;;;;;29.51;37.53;93831.63;4889840;29;9074;-62
2023/07/21 06:46:51;;;;;;;;;;;;;;;29.51;37.47;93828.84;4893013;29;7389;-62
2023/07/21 06:49:57;;;;;;;;;;;;;;;29.54;37.13;93844.38;4881884;29;7267;-62
2023/07/21 06:52:35;;;;;;;;;;;;;;;29.52;37.61;93842.16;4880908;29;7319;-62
2023/07/21 06:55:09;;;;;;;;;;;;;;;29.52;37.40;93849.72;4890609;29;7173;-62
2023/07/21 06:58:09;;;;;;;;;;;;;;;29.52;36.50;93830.31;4879324;29;7256;-63
2023/07/21 07:00:48;;;;;;;;;;;;;;;29.51;36.57;93824.06;4893117;29;9028;-61
2023/07/21 07:03:34;;;;;;;;;;;;;;;29.48;36.21;93805.75;4879912;29;9573;-62
2023/07/21 07:06:01;;;;;;;;;;;;;;;29.47;36.89;93801.50;4877346;29;9066;-62
2023/07/21 07:08:35;;;;;;;;;;;;;;;29.51;36.45;93812.22;4923479;28;7131;-63
2023/07/21 07:11:03;;;;;;;;;;;;;;;29.42;36.50;93815.53;4951306;28;9105;-62
2023/07/21 07:13:44;;;;;;;;;;;;;;;29.41;36.46;93811.25;4936465;28;7019;-62
2023/07/21 07:16:20;;;;;;;;;;;;;;;29.43;36.21;93812.19;5005391;28;6894;-56
2023/07/21 07:18:48;;;;;;;;;;;;;;;29.37;37.14;93808.88;5049807;28;9002;-56
2023/07/21 07:21:31;;;;;;;;;;;;;;;29.43;36.35;93797.59;5044819;28;6860;-57
2023/07/21 07:23:58;;;;;;;;;;;;;;;29.42;35.94;93782.28;5033346;28;7611;-57
2023/07/21 07:26:26;;;;;;;;;;;;;;;29.43;36.56;93778.19;5051802;28;7115;-57
2023/07/21 07:29:07;;;;;;;;;;;;;;;29.45;36.60;93790.22;5047884;28;6999;-56
2023/07/21 07:31:42;;;;;;;;;;;;;;;29.47;36.70;93784.88;5052767;28;7266;-56
2023/07/21 07:34:08;;;;;;;;;;;;;;;29.47;36.29;93804.25;5044832;28;7982;-57
2023/07/21 07:36:51;;;;;;;;;;;;;;;29.50;36.25;93816.28;5047271;28;9030;-57
2023/07/21 07:39:38;;;;;;;;;;;;;;;29.52;37.20;93827.56;5033149;28;7090;-57
2023/07/21 07:42:08;;;;;;;;;;;;;;;29.52;37.21;93816.47;5065706;28;7242;-57
2023/07/21 07:44:55;;;;;;;;;;;;;;;29.52;36.43;93808.91;5050160;28;7193;-57
2023/07/21 07:47:29;;;;;;;;;;;;;;;29.51;37.39;93818.53;5048185;28;7367;-57
2023/07/21 07:49:55;;;;;;;;;;;;;;;29.50;36.95;93807.97;5036283;28;9135;-56
2023/07/21 07:52:28;;;;;;;;;;;;;;;29.53;36.57;93834.59;5030714;28;6975;-57
2023/07/21 07:54:57;;;;;;;;;;;;;;;29.54;37.03;93844.38;5031462;28;7251;-57
2023/07/21 07:57:26;;;;;;;;;;;;;;;29.55;37.08;93843.09;5033577;28;7173;-57
2023/07/21 08:00:00;;;;;;;;;;;;;;;29.58;36.53;93853.81;5066581;28;7276;-57
2023/07/21 08:02:45;;;;;;;;;;;;;;;29.55;36.82;93852.16;5051150;28;7407;-56
2023/07/21 08:05:19;;;;;;;;;;;;;;;29.56;37.39;93855.63;5050172;28;10176;-57
2023/07/21 08:08:08;;;;;;;;;;;;;;;29.57;36.70;93848.81;5047455;28;9077;-57
2023/07/21 08:10:54;;;;;;;;;;;;;;;29.54;37.29;93867.28;5063558;28;8813;-57
2023/07/21 08:13:26;;;;;;;;;;;;;;;29.54;37.57;93861.00;5031378;28;7218;-57
2023/07/21 08:16:03;;;;;;;;;;;;;;;29.54;36.58;93858.97;5032925;28;7196;-57
2023/07/21 08:18:33;;;;;;;;;;;;;;;29.56;37.29;93863.94;5050803;28;9070;-57
2023/07/21 08:21:38;;;;;;;;;;;;;;;29.53;36.66;93851.22;5035256;28;7254;-57
2023/07/21 08:24:25;;;;;;;;;;;;;;;29.55;37.34;93841.06;5020527;28;7094;-64
2023/07/21 08:27:08;;;;;;;;;;;;;;;29.50;37.65;93828.09;4998217;28;6986;-63
2023/07/21 08:29:36;;;;;;;;;;;;;;;29.53;36.67;93829.78;5022825;28;7521;-64
2023/07/21 08:32:12;;;;;;;;;;;;;;;29.51;36.63;93826.84;5002294;28;7006;-64
2023/07/21 08:34:43;;;;;;;;;;;;;;;29.50;36.80;93817.03;5009079;28;7426;-64
2023/07/21 08:37:12;;;;;;;;;;;;;;;29.53;36.82;93804.84;5006414;28;8745;-64
2023/07/21 08:39:39;;;;;;;;;;;;;;;29.51;36.80;93795.59;5021995;28;7210;-63
2023/07/21 08:42:17;;;;;;;;;;;;;;;29.52;37.04;93795.03;5004580;28;7474;-63
2023/07/21 08:44:44;;;;;;;;;;;;;;;29.51;36.84;93784.53;5023497;28;7323;-64
2023/07/21 08:47:21;;;;;;;;;;;;;;;29.55;37.08;93779.34;5028329;28;7438;-64
2023/07/21 08:49:57;;;;;;;;;;;;;;;29.56;37.23;93770.47;5019918;28;7232;-64
2023/07/21 08:52:26;;;;;;;;;;;;;;;29.57;37.09;93779.53;5018967;28;9139;-64
2023/07/21 08:54:53;;;;;;;;;;;;;;;29.57;37.37;93766.44;5020460;28;7278;-64
2023/07/21 08:57:25;;;;;;;;;;;;;;;29.55;37.15;93763.47;5050795;28;7365;-64
2023/07/21 08:59:58;;;;;;;;;;;;;;;29.57;37.36;93763.66;5064378;28;7074;-64
2023/07/21 09:02:59;;;;;;;;;;;;;;;29.60;37.76;93770.84;5064192;28;6994;-64
2023/07/21 09:05:26;;;;;;;;;;;;;;;29.59;37.88;93785.25;4991824;28;7075;-64
2023/07/21 09:08:21;;;;;;;;;;;;;;;29.58;37.16;93790.06;5000387;28;7714;-63
2023/07/21 09:10:51;;;;;;;;;;;;;;;29.58;37.73;93805.97;5008261;28;7447;-62
2023/07/21 09:13:28;;;;;;;;;;;;;;;29.60;37.64;93811.69;5007848;28;7269;-62
2023/07/21 09:15:57;;;;;;;;;;;;;;;29.56;37.86;93814.81;4987404;28;9093;-64
2023/07/21 09:18:29;;;;;;;;;;;;;;;29.58;38.42;93823.31;5011088;28;7163;-62
2023/07/21 09:21:24;;;;;;;;;;;;;;;29.58;38.06;93828.84;5002039;28;9229;-63
2023/07/21 09:24:06;;;;;;;;;;;;;;;29.54;38.01;93834.03;4914420;28;8447;-63
2023/07/21 09:26:32;;;;;;;;;;;;;;;29.57;39.77;93837.72;4913570;29;7425;-63
2023/07/21 09:29:00;;;;;;;;;;;;;;;29.58;38.88;93850.31;4927606;29;8955;-62
2023/07/21 09:31:33;;;;;;;;;;;;;;;29.59;39.68;93843.47;4928126;29;7075;-63
2023/07/21 09:34:07;;;;;;;;;;;;;;;29.56;39.06;93847.31;4921942;29;7038;-57
2023/07/21 09:36:33;;;;;;;;;;;;;;;29.54;38.12;93858.22;4929231;29;9433;-57
2023/07/21 09:39:07;;;;;;;;;;;;;;;29.54;38.05;93855.44;4928251;29;8645;-57
2023/07/21 09:42:10;;;;;;;;;;;;;;;29.54;39.11;93861.00;4948568;28;7272;-57
2023/07/21 09:44:55;;;;;;;;;;;;;;;29.52;39.01;93874.66;4966419;28;9075;-57
2023/07/21 09:47:33;;;;;;;;;;;;;;;29.53;38.52;93884.47;4955362;28;7242;-58
2023/07/21 09:49:59;;;;;;;;;;;;;;;29.54;38.37;93897.75;4951949;28;9715;-57
2023/07/21 09:52:28;;;;;;;;;;;;;;;29.55;38.33;93904.06;4952825;28;9242;-57
2023/07/21 09:55:26;;;;;;;;;;;;;;;29.54;38.02;93910.88;4941935;29;7007;-56
2023/07/21 09:58:09;;;;;;;;;;;;;;;29.55;38.30;93902.03;4936421;28;7059;-57
2023/07/21 10:00:40;;;;;;;;;;;;;;;29.54;38.95;93900.53;5015562;28;9103;-56
2023/07/21 10:03:27;;;;;;;;;;;;;;;29.54;38.57;93902.56;5028279;28;7565;-57
2023/07/21 10:05:59;;;;;;;;;;;;;;;29.55;38.36;93904.06;5030625;28;9138;-57
2023/07/21 10:08:56;;;;;;;;;;;;;;;29.53;39.90;93904.63;5063399;28;7207;-57
2023/07/21 10:11:30;;;;;;;;;;;;;;;29.52;39.41;93899.59;5029710;28;7402;-57
2023/07/21 10:14:32;;;;;;;;;;;;;;;29.54;38.95;93899.78;5060142;28;7048;-57
2023/07/21 10:17:41;;;;;;;;;;;;;;;29.54;38.60;93906.06;4995852;28;7076;-57
2023/07/21 10:20:13;;;;;;;;;;;;;;;29.56;39.56;93920.13;4969139;28;7381;-57
2023/07/21 10:22:56;;;;;;;;;;;;;;;29.55;40.46;93932.50;4974253;28;7068;-57
2023/07/21 10:25:46;;;;;;;;;;;;;;;29.56;40.04;93930.47;4959398;28;9101;-57
2023/07/21 10:28:53;;;;;;;;;;;;;;;29.57;40.02;93920.88;4971618;28;7260;-57
2023/07/21 10:31:25;;;;;;;;;;;;;;;29.59;40.63;93909.97;4945307;28;9416;-57
2023/07/21 10:34:14;;;;;;;;;;;;;;;29.60;40.50;93901.09;4949963;28;7290;-57
2023/07/21 10:36:51;;;;;;;;;;;;;;;29.59;40.68;93909.97;4934653;28;7266;-57
2023/07/21 10:39:40;;;;;;;;;;;;;;;29.60;40.30;93911.47;4951410;28;7501;-57
2023/07/21 10:42:07;;;;;;;;;;;;;;;29.58;40.68;93909.22;4952393;28;7506;-57
2023/07/21 10:44:47;;;;;;;;;;;;;;;29.57;40.43;93913.31;4931401;28;7188;-61
2023/07/21 10:47:18;;;;;;;;;;;;;;;29.58;41.01;93927.91;4936642;28;7091;-61
2023/07/21 10:49:47;;;;;;;;;;;;;;;29.59;40.16;93929.38;4930671;29;7348;-61
2023/07/21 10:52:22;;;;;;;;;;;;;;;29.58;40.22;93933.44;4958065;28;9052;-61
2023/07/21 10:55:04;;;;;;;;;;;;;;;29.58;40.44;93939.00;4960652;28;7509;-61
2023/07/21 10:57:50;;;;;;;;;;;;;;;29.55;40.10;93926.22;5001512;28;9166;-61
2023/07/21 11:00:21;;;;;;;;;;;;;;;29.59;40.75;93941.22;4992194;28;9268;-61
2023/07/21 11:02:53;;;;;;;;;;;;;;;29.60;39.42;93947.50;5020488;28;7307;-61
2023/07/21 11:05:20;;;;;;;;;;;;;;;29.58;40.37;93939.00;5052092;28;7275;-61
2023/07/21 11:07:56;;;;;;;;;;;;;;;29.62;40.50;93942.88;5040838;28;8394;-61
2023/07/21 11:10:31;;;;;;;;;;;;;;;29.63;40.05;93947.13;5032399;28;7590;-61
2023/07/21 11:12:59;;;;;;;;;;;;;;;29.63;39.53;93940.84;5032341;28;9217;-61
2023/07/21 11:15:26;;;;;;;;;;;;;;;29.66;39.65;93946.06;5035180;28;6957;-61
2023/07/21 11:18:21;;;;;;;;;;;;;;;29.67;39.87;93952.31;5035112;28;6995;-61
2023/07/21 11:20:52;;;;;;;;;;;;;;;29.64;40.91;93945.84;5068474;28;7441;-61
2023/07/21 11:23:26;;;;;;;;;;;;;;;29.63;40.00;93935.31;5051150;28;7256;-60
2023/07/21 11:26:38;;;;;;;;;;;;;;;29.63;39.34;93930.50;5047036;28;7795;-61
2023/07/21 11:29:15;;;;;;;;;;;;;;;29.63;40.41;93924.22;5004900;28;9060;-61
2023/07/21 11:31:59;;;;;;;;;;;;;;;29.66;40.01;93937.75;4986533;28;9088;-61
2023/07/21 11:34:46;;;;;;;;;;;;;;;29.69;39.96;93933.84;4980604;28;9134;-61
2023/07/21 11:37:35;;;;;;;;;;;;;;;29.71;40.02;93934.03;4984998;28;7088;-61
2023/07/21 11:40:24;;;;;;;;;;;;;;;29.76;39.69;93926.88;4984164;28;7618;-62
2023/07/21 11:42:52;;;;;;;;;;;;;;;29.76;39.91;93924.09;4989205;28;7561;-61
2023/07/21 11:45:35;;;;;;;;;;;;;;;29.75;39.27;93917.09;5004738;28;9178;-61
2023/07/21 11:48:24;;;;;;;;;;;;;;;29.75;39.40;93915.03;4986994;28;9318;-62
2023/07/21 11:51:22;;;;;;;;;;;;;;;29.73;39.47;93912.06;4990589;28;7335;-62
2023/07/21 11:53:51;;;;;;;;;;;;;;;29.74;39.82;93915.59;4917326;29;7247;-62
2023/07/21 11:56:29;;;;;;;;;;;;;;;29.74;39.96;93910.06;4928818;29;7232;-62
2023/07/21 11:59:10;;;;;;;;;;;;;;;29.74;40.19;93913.56;4913368;29;7240;-62
2023/07/21 12:02:07;;;;;;;;;;;;;;;29.72;40.14;93907.81;4906768;29;7243;-62
2023/07/21 12:04:47;;;;;;;;;;;;;;;29.73;39.61;93905.78;4859331;29;7178;-62
2023/07/21 12:07:25;;;;;;;;;;;;;;;29.75;39.84;93911.56;4914810;29;9181;-61
2023/07/21 12:10:10;;;;;;;;;;;;;;;29.74;40.28;93904.50;4912851;29;9405;-61
2023/07/21 12:12:47;;;;;;;;;;;;;;;29.77;40.27;93906.19;4913490;29;9110;-62
2023/07/21 12:15:13;;;;;;;;;;;;;;;29.78;40.81;93910.44;4914026;29;7282;-61
2023/07/21 12:17:39;;;;;;;;;;;;;;;29.77;40.48;93906.19;4898756;29;6868;-61
2023/07/21 12:20:26;;;;;;;;;;;;;;;29.76;39.79;93905.44;4912048;29;7529;-61
2023/07/21 12:23:05;;;;;;;;;;;;;;;29.76;40.03;93905.44;4898120;29;7664;-62
2023/07/21 12:25:41;;;;;;;;;;;;;;;29.76;40.40;93904.69;4912838;29;9101;-62
2023/07/21 12:28:24;;;;;;;;;;;;;;;29.77;40.05;93889.56;4912025;29;8849;-62
2023/07/21 12:30:51;;;;;;;;;;;;;;;29.76;39.98;93882.53;4973046;28;7159;-62
2023/07/21 12:33:27;;;;;;;;;;;;;;;29.80;39.78;93886.41;4970626;28;9112;-62
2023/07/21 12:36:05;;;;;;;;;;;;;;;29.82;39.57;93883.09;4973715;28;7584;-61
2023/07/21 12:39:07;;;;;;;;;;;;;;;29.83;39.76;93879.03;4993659;28;8807;-62
2023/07/21 12:42:09;;;;;;;;;;;;;;;29.84;39.10;93877.00;5035983;28;7400;-62
2023/07/21 12:44:59;;;;;;;;;;;;;;;29.88;38.94;93869.81;5024356;28;7655;-63
2023/07/21 12:47:27;;;;;;;;;;;;;;;29.89;40.15;93874.06;5010881;28;7249;-62
2023/07/21 12:50:03;;;;;;;;;;;;;;;29.89;39.57;93876.81;5029653;28;6869;-61
2023/07/21 12:52:39;;;;;;;;;;;;;;;29.93;39.51;93877.19;5027513;28;7197;-61
2023/07/21 12:55:14;;;;;;;;;;;;;;;29.94;39.86;93875.91;5026227;28;7850;-61
2023/07/21 12:57:51;;;;;;;;;;;;;;;29.93;39.59;93874.41;5024586;28;7165;-61
2023/07/21 13:00:18;;;;;;;;;;;;;;;29.92;39.25;93872.22;5010350;28;9152;-61
2023/07/21 13:03:03;;;;;;;;;;;;;;;29.92;39.94;93878.50;5005924;28;9169;-62
2023/07/21 13:05:42;;;;;;;;;;;;;;;29.89;39.32;93874.06;5012682;28;6919;-56
2023/07/21 13:08:28;;;;;;;;;;;;;;;29.90;39.72;93872.78;5028673;28;7630;-56
2023/07/21 13:10:54;;;;;;;;;;;;;;;29.90;39.62;93883.13;5022327;28;7164;-56
2023/07/21 13:13:20;;;;;;;;;;;;;;;29.91;40.41;93873.50;5006469;28;7248;-56
2023/07/21 13:15:47;;;;;;;;;;;;;;;29.88;40.27;93860.75;5024437;28;7233;-56
2023/07/21 13:18:15;;;;;;;;;;;;;;;29.88;40.13;93860.75;5033662;28;9091;-56
2023/07/21 13:20:59;;;;;;;;;;;;;;;29.92;39.38;93861.88;5049990;28;7203;-56
2023/07/21 13:23:34;;;;;;;;;;;;;;;29.90;38.99;93858.91;5043530;28;7073;-56
2023/07/21 13:26:09;;;;;;;;;;;;;;;29.92;39.29;93853.53;5025136;28;7072;-56
2023/07/21 13:28:37;;;;;;;;;;;;;;;29.95;39.38;93854.47;5048788;28;7378;-56
2023/07/21 13:31:15;;;;;;;;;;;;;;;29.96;39.90;93856.69;5033933;28;7546;-56
2023/07/21 13:33:52;;;;;;;;;;;;;;;30.00;40.12;93859.84;5026561;28;7273;-56
2023/07/21 13:36:28;;;;;;;;;;;;;;;29.99;39.42;93871.50;5032684;28;7106;-56
2023/07/21 13:39:03;;;;;;;;;;;;;;;30.02;39.11;93873.13;5030860;28;8751;-56
2023/07/21 13:41:32;;;;;;;;;;;;;;;30.01;39.40;93853.00;5040582;28;9074;-56
2023/07/21 13:43:59;;;;;;;;;;;;;;;30.05;39.52;93869.28;5028599;28;7473;-56
2023/07/21 13:47:00;;;;;;;;;;;;;;;30.07;38.85;93867.44;5047263;28;7034;-56
2023/07/21 13:49:28;;;;;;;;;;;;;;;30.07;39.03;93867.44;4994877;28;7306;-56
2023/07/21 13:52:18;;;;;;;;;;;;;;;30.10;39.83;93866.31;4991982;28;7675;-56
2023/07/21 13:55:17;;;;;;;;;;;;;;;30.11;39.83;93864.28;5012527;28;9089;-56
2023/07/21 13:57:52;;;;;;;;;;;;;;;30.12;38.96;93841.56;4957336;28;7186;-56